Main page
Satellite images 15-day forecastsClimateMarine weather Cyclones Lightning AirportsFAQ Newsletter About
Weather : Europe Africa North America South America Asia Australia-Oceania Others
Languages Contact

Leeds Bradford, England

latitude: 53-52N, longitude: 001-39W, elevation: 208 m


METAR: EGNM 292020Z 29012KT 9999 FEW032 14/10 Q1015
short-TAF: out of date (37140 hours)
long-TAF: EGNM 291703Z 2918/3018 28012KT 9999 SCT020 TEMPO 3002/3009 BKN014

Time: 21:50 (20:50 UTC)

Current weather observation

The report was made 29 minutes ago, at 20:20 UTC  
Wind 12 kt from the West/Northwest
Temperature 14°C
Humidity 77%
Pressure 1015 hPa
Visibility 10 km or more
Few clouds at a height of 3200 ft

Change units

Forecast

The report was made 3 hours and 35 minutes ago, at 17:15 UTC  
Forecast valid from 29 at 18 UTC to 30 at 18 UTC
Wind 12 kt from the West
Visibility 10 km or more
Scattered clouds at a height of 2000 ft
Temporary
from 30 at 02 UTC to 30 at 09 UTC
Broken clouds at a height of 1400 ft
The information on this site is subject to a disclaimer
Weather : Europe Africa North America South America Asia Australia-Oceania Others
Satellite images 15-day forecastsClimateMarine weather Cyclones Lightning AirportsFAQ Languages Contact Newsletter About